createdAt,value
2022-11-01T00:01:57.329Z,29.77
2022-11-01T00:04:25.463Z,26.97
2022-11-01T00:06:53.354Z,28.83
2022-11-01T00:09:22.498Z,29.10
2022-11-01T00:11:50.453Z,32.70
2022-11-01T00:14:20.318Z,27.40
2022-11-01T00:16:48.321Z,33.00
2022-11-01T00:19:16.506Z,30.63
2022-11-01T00:21:44.280Z,26.87
2022-11-01T00:24:12.148Z,29.43
2022-11-01T00:26:41.619Z,26.87
2022-11-01T00:29:09.463Z,27.13
2022-11-01T00:31:37.171Z,27.97
2022-11-01T00:34:06.201Z,27.03
2022-11-01T00:36:34.554Z,32.40
2022-11-01T00:39:02.174Z,27.37
2022-11-01T00:41:29.873Z,28.47
2022-11-01T00:43:58.916Z,26.13
2022-11-01T00:46:27.128Z,30.13
2022-11-01T00:48:54.739Z,29.80
2022-11-01T00:51:22.478Z,29.40
2022-11-01T00:53:50.287Z,26.50
2022-11-01T00:56:18.300Z,25.10
2022-11-01T00:58:46.076Z,24.57
2022-11-01T01:01:15.344Z,26.67
2022-11-01T01:03:43.287Z,26.57
2022-11-01T01:06:11.008Z,25.47
2022-11-01T01:08:38.750Z,27.50
2022-11-01T01:11:06.520Z,27.27
2022-11-01T01:13:34.096Z,25.53
2022-11-01T01:16:01.699Z,21.57
2022-11-01T01:18:30.608Z,26.97
2022-11-01T01:21:01.778Z,22.47
2022-11-01T01:23:29.402Z,20.40
2022-11-01T01:25:57.031Z,20.40
2022-11-01T01:28:24.581Z,22.60
2022-11-01T01:30:52.119Z,23.07
2022-11-01T01:33:19.671Z,21.47
2022-11-01T01:35:48.661Z,20.93
2022-11-01T01:38:16.296Z,22.43
2022-11-01T01:40:43.858Z,21.20
2022-11-01T01:43:13.083Z,22.67
2022-11-01T01:45:42.529Z,22.73
2022-11-01T01:48:20.564Z,23.00
2022-11-01T01:50:57.140Z,26.70
2022-11-01T01:53:28.556Z,23.00
2022-11-01T01:56:00.803Z,23.23
2022-11-01T01:58:31.430Z,17.50
2022-11-01T02:00:59.886Z,24.07
2022-11-01T02:03:31.052Z,20.57
2022-11-01T02:06:03.752Z,19.50
2022-11-01T02:08:32.551Z,26.20
2022-11-01T02:11:02.531Z,27.97
2022-11-01T02:13:31.344Z,25.40
2022-11-01T02:16:18.838Z,21.83
2022-11-01T02:18:49.192Z,22.40
2022-11-01T02:21:46.455Z,19.57
2022-11-01T02:24:43.944Z,24.77
2022-11-01T02:27:20.667Z,19.47
2022-11-01T02:30:12.649Z,24.87
2022-11-01T02:32:57.673Z,21.50
2022-11-01T02:35:31.456Z,19.00
2022-11-01T02:38:07.483Z,25.80
2022-11-01T02:40:44.154Z,19.60
2022-11-01T02:43:17.274Z,20.33
2022-11-01T02:45:49.438Z,26.63
2022-11-01T02:48:21.556Z,21.90
2022-11-01T02:50:54.121Z,20.67
2022-11-01T02:53:21.729Z,23.60
2022-11-01T02:55:51.894Z,19.53
2022-11-01T02:58:23.208Z,18.30
2022-11-01T03:00:52.038Z,23.80
2022-11-01T03:03:24.710Z,22.90
2022-11-01T03:06:06.000Z,28.87
2022-11-01T03:08:37.507Z,32.60
2022-11-01T03:11:09.601Z,24.03
2022-11-01T03:13:53.536Z,27.83
2022-11-01T03:16:29.274Z,27.03
2022-11-01T03:19:07.610Z,24.33
2022-11-01T03:21:40.301Z,27.63
2022-11-01T03:24:15.806Z,27.00
2022-11-01T03:26:44.702Z,26.13
2022-11-01T03:29:13.156Z,24.03
2022-11-01T03:31:43.132Z,28.60
2022-11-01T03:34:16.427Z,26.47
2022-11-01T03:36:48.813Z,26.67
2022-11-01T03:39:21.602Z,25.83
2022-11-01T03:41:55.410Z,24.77
2022-11-01T03:44:23.991Z,22.97
2022-11-01T03:46:51.695Z,26.00
2022-11-01T03:49:21.204Z,21.67
2022-11-01T03:51:49.231Z,30.50
2022-11-01T03:54:16.840Z,24.70
2022-11-01T03:56:44.722Z,23.93
2022-11-01T03:59:12.567Z,22.90
2022-11-01T04:01:40.349Z,22.07
2022-11-01T04:04:08.080Z,24.03
2022-11-01T04:06:37.087Z,24.43
2022-11-01T04:09:05.437Z,33.33
2022-11-01T04:11:33.039Z,21.17
2022-11-01T04:14:14.627Z,23.17
2022-11-01T04:16:59.722Z,25.37
2022-11-01T04:19:44.994Z,27.90
2022-11-01T04:22:13.997Z,20.80
2022-11-01T04:24:41.741Z,27.67
2022-11-01T04:27:09.424Z,26.03
2022-11-01T04:29:37.088Z,24.83
2022-11-01T04:32:04.779Z,26.57
2022-11-01T04:34:44.425Z,24.37
2022-11-01T04:37:14.049Z,26.47
2022-11-01T04:39:41.657Z,25.00
2022-11-01T04:42:09.270Z,26.67
2022-11-01T04:44:36.874Z,26.53
2022-11-01T04:47:04.543Z,25.60
2022-11-01T04:49:32.108Z,26.53
2022-11-01T04:51:59.707Z,28.50
2022-11-01T04:54:33.268Z,34.37
2022-11-01T04:57:00.841Z,34.77
2022-11-01T04:59:28.494Z,26.83
2022-11-01T05:01:56.141Z,23.17
2022-11-01T05:04:23.758Z,27.80
2022-11-01T05:06:51.581Z,29.20
2022-11-01T05:09:19.166Z,28.60
2022-11-01T05:11:48.083Z,31.17
2022-11-01T05:14:15.633Z,27.53
2022-11-01T05:16:43.182Z,34.60
2022-11-01T05:19:10.754Z,32.90
2022-11-01T05:21:38.370Z,26.87
2022-11-01T05:24:06.452Z,30.93
2022-11-01T05:26:34.060Z,25.13
2022-11-01T05:29:09.078Z,24.30
2022-11-01T05:31:41.096Z,24.93
2022-11-01T05:34:08.841Z,27.40
2022-11-01T05:36:36.406Z,25.43
2022-11-01T05:39:04.109Z,20.77
2022-11-01T05:41:31.702Z,26.20
2022-11-01T05:43:59.477Z,19.50
2022-11-01T05:46:28.566Z,30.40
2022-11-01T05:48:56.198Z,26.00
2022-11-01T05:51:24.866Z,25.87
2022-11-01T05:53:52.680Z,22.23
2022-11-01T05:56:20.241Z,24.33
2022-11-01T05:58:48.342Z,22.43
2022-11-01T06:01:17.776Z,22.13
2022-11-01T06:03:50.503Z,27.10
2022-11-01T06:06:18.422Z,21.03
2022-11-01T06:08:46.019Z,29.20
2022-11-01T06:11:13.625Z,22.33
2022-11-01T06:13:41.286Z,25.67
2022-11-01T06:16:09.458Z,25.73
2022-11-01T06:18:37.077Z,24.77
2022-11-01T06:21:06.238Z,24.47
2022-11-01T06:23:33.905Z,28.37
2022-11-01T06:26:02.697Z,20.43
2022-11-01T06:28:30.295Z,22.13
2022-11-01T06:31:01.810Z,23.67
2022-11-01T06:33:29.501Z,20.37
2022-11-01T06:35:57.071Z,25.07
2022-11-01T06:38:26.216Z,19.60
2022-11-01T06:40:53.780Z,19.83
2022-11-01T06:43:21.374Z,22.77
2022-11-01T06:45:49.104Z,18.93
2022-11-01T06:48:16.713Z,23.77
2022-11-01T06:50:44.340Z,22.07
2022-11-01T06:53:11.956Z,20.77
2022-11-01T06:55:40.875Z,22.03
2022-11-01T06:58:08.481Z,20.30
2022-11-01T07:00:36.167Z,19.77
2022-11-01T07:03:05.751Z,21.60
2022-11-01T07:05:37.133Z,21.83
2022-11-01T07:08:07.144Z,18.70
2022-11-01T07:10:36.456Z,20.93
2022-11-01T07:13:07.183Z,18.87
2022-11-01T07:15:35.671Z,16.73
2022-11-01T07:18:06.398Z,22.17
2022-11-01T07:20:41.024Z,21.53
2022-11-01T07:23:12.227Z,22.73
2022-11-01T07:25:39.862Z,17.47
2022-11-01T07:28:08.900Z,15.50
2022-11-01T07:30:39.224Z,17.03
2022-11-01T07:33:07.184Z,19.50
2022-11-01T07:35:35.599Z,16.77
2022-11-01T07:38:06.521Z,13.10
2022-11-01T07:40:39.801Z,16.73
2022-11-01T07:43:08.883Z,14.17
2022-11-01T07:45:36.700Z,12.67
2022-11-01T07:48:06.489Z,13.03
2022-11-01T07:50:35.233Z,19.47
2022-11-01T07:53:03.125Z,14.37
2022-11-01T07:55:30.761Z,18.23
2022-11-01T07:57:58.572Z,16.73
2022-11-01T08:00:27.753Z,16.70
2022-11-01T08:03:01.507Z,15.33
2022-11-01T08:05:29.575Z,14.10
2022-11-01T08:07:57.438Z,12.73
2022-11-01T08:10:25.428Z,15.57
2022-11-01T08:12:53.278Z,14.70
2022-11-01T08:15:20.886Z,14.83
2022-11-01T08:17:50.057Z,13.03
2022-11-01T08:20:17.701Z,13.03
2022-11-01T08:25:13.904Z,14.50
2022-11-01T08:27:41.529Z,11.53
2022-11-01T08:30:10.241Z,15.17
2022-11-01T08:32:37.889Z,12.53
2022-11-01T08:35:08.675Z,16.17
2022-11-01T08:37:36.276Z,14.37
2022-11-01T08:40:04.678Z,18.13
2022-11-01T08:42:32.250Z,13.00
2022-11-01T08:44:59.877Z,16.00
2022-11-01T08:47:27.532Z,11.30
2022-11-01T08:49:55.158Z,11.37
2022-11-01T08:52:25.439Z,11.10
2022-11-01T08:54:53.123Z,10.37
2022-11-01T08:57:20.693Z,12.10
2022-11-01T08:59:48.337Z,15.30
2022-11-01T09:02:16.310Z,13.83
2022-11-01T09:04:44.056Z,10.00
2022-11-01T09:07:11.772Z,11.67
2022-11-01T09:09:40.759Z,11.70
2022-11-01T09:12:13.843Z,5.13
2022-11-01T09:14:42.201Z,4.90
2022-11-01T09:17:10.018Z,3.47
2022-11-01T09:19:38.009Z,13.30
2022-11-01T09:22:05.806Z,3.50
2022-11-01T09:24:33.435Z,2.93
2022-11-01T09:27:02.457Z,3.43
2022-11-01T09:29:30.097Z,3.83
2022-11-01T09:31:57.814Z,4.63
2022-11-01T09:34:25.466Z,6.17
2022-11-01T09:36:54.000Z,3.23
2022-11-01T09:39:22.132Z,6.47
2022-11-01T09:41:52.966Z,3.67
2022-11-01T09:44:27.711Z,11.47
2022-11-01T09:47:02.361Z,8.20
2022-11-01T09:49:35.412Z,4.03
2022-11-01T09:52:03.231Z,5.13
2022-11-01T09:54:30.898Z,9.53
2022-11-01T09:57:06.750Z,5.73
2022-11-01T09:59:39.945Z,2.37
2022-11-01T10:02:30.958Z,4.63
2022-11-01T10:05:18.615Z,7.10
2022-11-01T10:07:55.809Z,6.60
2022-11-01T10:10:38.761Z,5.13
2022-11-01T10:13:30.469Z,3.30
2022-11-01T10:16:05.165Z,4.40
2022-11-01T10:18:36.482Z,2.97
2022-11-01T10:21:10.150Z,2.77
2022-11-01T10:23:47.050Z,3.47
2022-11-01T10:26:18.293Z,2.87
2022-11-01T10:28:53.283Z,2.83
2022-11-01T10:31:25.806Z,5.47
2022-11-01T10:34:00.058Z,3.03
2022-11-01T10:36:33.410Z,4.90
2022-11-01T10:42:09.779Z,3.05
2022-11-01T10:44:41.264Z,4.10
2022-11-01T10:47:16.055Z,8.73
2022-11-01T10:52:47.426Z,4.60
2022-11-01T10:55:20.546Z,3.05
2022-11-01T10:57:52.511Z,6.70
2022-11-01T11:00:22.051Z,4.75
2022-11-01T11:02:54.729Z,2.03
2022-11-01T11:05:23.909Z,5.13
2022-11-01T11:07:52.133Z,3.72
2022-11-01T11:10:24.359Z,2.90
2022-11-01T11:12:57.832Z,3.78
2022-11-01T11:15:38.426Z,2.40
2022-11-01T11:18:17.218Z,3.67
2022-11-01T11:20:45.168Z,5.35
2022-11-01T11:23:13.768Z,3.95
2022-11-01T11:25:43.225Z,3.75
2022-11-01T11:28:26.894Z,3.40
2022-11-01T11:30:54.751Z,6.30
2022-11-01T11:33:23.964Z,7.25
2022-11-01T11:35:57.519Z,5.57
2022-11-01T11:38:41.567Z,4.07
2022-11-01T11:41:11.738Z,2.85
2022-11-01T11:43:41.725Z,3.65
2022-11-01T11:46:19.082Z,3.92
2022-11-01T11:48:53.067Z,4.78
2022-11-01T11:51:21.983Z,3.17
2022-11-01T11:54:20.519Z,6.03
2022-11-01T11:56:48.836Z,3.13
2022-11-01T11:59:25.979Z,2.65
2022-11-01T12:02:00.044Z,4.00
2022-11-01T12:04:35.200Z,4.35
2022-11-01T12:07:02.877Z,3.75
2022-11-01T12:09:44.803Z,3.05
2022-11-01T12:12:20.763Z,4.90
2022-11-01T12:14:48.362Z,4.10
2022-11-01T12:17:32.350Z,6.45
2022-11-01T12:20:15.729Z,4.55
2022-11-01T12:22:49.532Z,3.42
2022-11-01T12:25:21.347Z,3.38
2022-11-01T12:28:00.040Z,4.18
2022-11-01T12:30:29.408Z,9.95
2022-11-01T12:32:59.441Z,6.38
2022-11-01T12:35:35.701Z,5.72
2022-11-01T12:38:27.008Z,4.97
2022-11-01T12:41:02.257Z,5.28
2022-11-01T12:43:37.739Z,4.47
2022-11-01T12:46:13.841Z,4.70
2022-11-01T12:48:46.066Z,3.75
2022-11-01T12:51:21.438Z,5.70
2022-11-01T12:53:54.096Z,4.78
2022-11-01T12:56:21.945Z,5.15
2022-11-01T12:58:53.625Z,3.60
2022-11-01T13:01:33.585Z,3.95
2022-11-01T13:04:18.699Z,4.03
2022-11-01T13:07:03.404Z,4.28
2022-11-01T13:09:45.858Z,4.20
2022-11-01T13:12:24.020Z,3.67
2022-11-01T13:15:00.184Z,4.03
2022-11-01T13:17:39.553Z,4.53
2022-11-01T13:20:22.698Z,4.00
2022-11-01T13:23:01.905Z,5.07
2022-11-01T13:25:40.527Z,5.18
2022-11-01T13:28:19.260Z,8.73
2022-11-01T13:30:58.261Z,5.43
2022-11-01T13:33:33.971Z,3.57
2022-11-01T13:36:07.650Z,6.77
2022-11-01T13:38:44.831Z,4.90
2022-11-01T13:41:23.569Z,4.63
2022-11-01T13:43:55.672Z,5.37
2022-11-01T13:47:08.019Z,4.23
2022-11-01T13:50:32.527Z,4.43
2022-11-01T13:53:05.630Z,4.93
2022-11-01T13:55:39.918Z,11.00
2022-11-01T13:58:08.204Z,4.30
2022-11-01T14:00:40.137Z,4.37
2022-11-01T14:03:29.637Z,6.80
2022-11-01T14:06:26.562Z,5.07
2022-11-01T14:09:30.065Z,5.00
2022-11-01T14:12:11.402Z,6.07
2022-11-01T14:14:53.042Z,5.17
2022-11-01T14:17:55.216Z,7.23
2022-11-01T14:20:53.497Z,12.73
2022-11-01T14:23:59.582Z,7.87
2022-11-01T14:26:49.545Z,7.73
2022-11-01T14:29:19.357Z,8.17
2022-11-01T14:31:49.200Z,7.47
2022-11-01T14:34:25.490Z,4.80
2022-11-01T14:36:56.614Z,5.60
2022-11-01T14:39:33.047Z,4.70
2022-11-01T14:42:03.607Z,6.10
2022-11-01T14:44:38.096Z,7.80
2022-11-01T14:47:17.697Z,6.93
2022-11-01T14:49:45.774Z,7.80
2022-11-01T14:52:21.457Z,8.77
2022-11-01T14:54:53.171Z,3.83
2022-11-01T14:57:25.849Z,6.37
2022-11-01T14:59:56.084Z,7.00
2022-11-01T15:02:25.700Z,8.87
2022-11-01T15:04:58.948Z,5.33
2022-11-01T15:07:30.847Z,8.10
2022-11-01T15:10:01.599Z,8.40
2022-11-01T15:12:33.026Z,8.00
2022-11-01T15:15:03.375Z,5.07
2022-11-01T15:17:33.906Z,8.20
2022-11-01T15:20:04.516Z,9.17
2022-11-01T15:22:34.463Z,3.00
2022-11-01T15:25:05.083Z,10.30
2022-11-01T15:27:38.810Z,8.70
2022-11-01T15:30:19.755Z,5.37
2022-11-01T15:32:52.953Z,6.60
2022-11-01T15:35:23.518Z,6.03
2022-11-01T15:37:54.150Z,9.87
2022-11-01T15:40:28.446Z,7.00
2022-11-01T15:43:00.685Z,8.47
2022-11-01T15:45:32.355Z,7.77
2022-11-01T15:48:06.806Z,8.53
2022-11-01T15:50:39.404Z,7.67
2022-11-01T15:53:11.113Z,8.83
2022-11-01T15:55:42.010Z,7.00
2022-11-01T15:58:15.340Z,10.37
2022-11-01T16:00:48.297Z,7.00
2022-11-01T16:03:19.716Z,8.97
2022-11-01T16:05:56.837Z,13.83
2022-11-01T16:08:32.281Z,7.60
2022-11-01T16:11:01.130Z,11.13
2022-11-01T16:13:31.970Z,9.07
2022-11-01T16:16:03.850Z,8.57
2022-11-01T16:18:35.915Z,7.40
2022-11-01T16:21:05.918Z,6.77
2022-11-01T16:23:34.429Z,8.30
2022-11-01T16:26:04.418Z,8.17
2022-11-01T16:28:38.734Z,8.17
2022-11-01T16:31:19.221Z,10.87
2022-11-01T16:33:48.215Z,11.33
2022-11-01T16:36:35.514Z,8.30
2022-11-01T16:39:03.383Z,12.63
2022-11-01T16:41:37.893Z,11.80
2022-11-01T16:44:14.147Z,7.73
2022-11-01T16:46:43.253Z,8.30
2022-11-01T16:49:19.839Z,10.53
2022-11-01T16:51:48.349Z,10.23
2022-11-01T16:54:16.204Z,9.10
2022-11-01T16:56:48.129Z,10.50
2022-11-01T16:59:30.602Z,10.03
2022-11-01T17:02:00.878Z,11.17
2022-11-01T17:04:29.615Z,8.93
2022-11-01T17:06:59.011Z,18.20
2022-11-01T17:09:33.441Z,8.17
2022-11-01T17:12:01.068Z,8.13
2022-11-01T17:14:29.023Z,15.80
2022-11-01T17:16:57.168Z,11.63
2022-11-01T17:19:29.927Z,12.60
2022-11-01T17:21:59.163Z,15.07
2022-11-01T17:24:28.442Z,10.33
2022-11-01T17:26:59.038Z,13.93
2022-11-01T17:29:29.549Z,13.97
2022-11-01T17:31:57.443Z,10.07
2022-11-01T17:34:28.888Z,15.87
2022-11-01T17:36:58.588Z,9.80
2022-11-01T17:39:28.629Z,8.90
2022-11-01T17:41:56.288Z,10.73
2022-11-01T17:44:24.230Z,10.33
2022-11-01T17:46:51.923Z,9.70
2022-11-01T17:49:21.531Z,15.07
2022-11-01T17:51:54.775Z,25.90
2022-11-01T17:54:23.134Z,18.00
2022-11-01T17:56:51.475Z,14.87
2022-11-01T17:59:19.568Z,26.70
2022-11-01T18:01:47.344Z,17.93
2022-11-01T18:04:15.617Z,18.57
2022-11-01T18:06:43.988Z,14.53
2022-11-01T18:09:20.822Z,11.37
2022-11-01T18:11:53.634Z,24.03
2022-11-01T18:14:33.418Z,12.63
2022-11-01T18:17:16.978Z,12.30
2022-11-01T18:19:54.727Z,14.90
2022-11-01T18:22:32.758Z,10.97
2022-11-01T18:25:06.413Z,7.73
2022-11-01T18:27:36.569Z,6.67
2022-11-01T18:30:13.910Z,14.07
2022-11-01T18:32:48.856Z,13.97
2022-11-01T18:35:31.744Z,12.40
2022-11-01T18:38:23.498Z,8.53
2022-11-01T18:41:00.139Z,11.13
2022-11-01T18:43:30.026Z,13.87
2022-11-01T18:46:27.750Z,10.50
2022-11-01T18:48:48.046Z,12.57
2022-11-01T18:51:22.505Z,13.17
2022-11-01T18:53:55.140Z,9.67
2022-11-01T18:56:26.437Z,11.53
2022-11-01T18:58:56.272Z,13.23
2022-11-01T19:01:31.887Z,11.97
2022-11-01T19:04:03.764Z,8.67
2022-11-01T19:06:33.676Z,16.90
2022-11-01T19:09:14.042Z,12.87
2022-11-01T19:11:43.234Z,12.50
2022-11-01T19:14:15.136Z,10.30
2022-11-01T19:16:43.289Z,8.60
2022-11-01T19:19:17.463Z,11.53
2022-11-01T19:21:45.168Z,12.23
2022-11-01T19:24:31.306Z,12.17
2022-11-01T19:27:01.113Z,12.10
2022-11-01T19:29:32.224Z,9.77
2022-11-01T19:32:02.954Z,9.73
2022-11-01T19:34:36.074Z,7.77
2022-11-01T19:37:08.483Z,9.73
2022-11-01T19:39:40.718Z,10.13
2022-11-01T19:42:20.300Z,10.80
2022-11-01T19:44:48.034Z,7.43
2022-11-01T19:47:36.413Z,8.50
2022-11-01T19:50:15.817Z,9.57
2022-11-01T19:52:47.250Z,8.60
2022-11-01T19:55:50.917Z,10.97
2022-11-01T19:58:26.764Z,10.07
2022-11-01T20:01:04.533Z,8.73
2022-11-01T20:03:39.849Z,10.47
2022-11-01T20:06:16.440Z,11.07
2022-11-01T20:08:45.256Z,9.80
2022-11-01T20:11:13.357Z,9.73
2022-11-01T20:13:42.488Z,12.97
2022-11-01T20:16:10.122Z,9.50
2022-11-01T20:18:37.719Z,13.60
2022-11-01T20:21:06.421Z,7.97
2022-11-01T20:23:34.657Z,11.53
2022-11-01T20:26:03.694Z,12.30
2022-11-01T20:28:31.576Z,9.30
2022-11-01T20:31:01.008Z,9.47
2022-11-01T20:33:28.587Z,12.20
2022-11-01T20:35:56.536Z,12.60
2022-11-01T20:38:24.512Z,16.47
2022-11-01T20:40:52.184Z,11.30
2022-11-01T20:43:20.082Z,8.67
2022-11-01T20:45:47.776Z,11.63
2022-11-01T20:48:18.151Z,7.70
2022-11-01T20:50:45.889Z,9.03
2022-11-01T20:53:14.708Z,11.83
2022-11-01T20:55:42.667Z,13.10
2022-11-01T20:58:10.414Z,11.10
2022-11-01T21:00:38.568Z,9.57
2022-11-01T21:03:14.132Z,10.40
2022-11-01T21:05:44.561Z,11.87
2022-11-01T21:08:22.700Z,13.80
2022-11-01T21:10:56.384Z,11.07
2022-11-01T21:13:27.041Z,14.07
2022-11-01T21:15:56.459Z,13.20
2022-11-01T21:18:32.896Z,10.30
2022-11-01T21:21:25.092Z,11.33
2022-11-01T21:23:52.802Z,11.17
2022-11-01T21:26:22.593Z,8.37
2022-11-01T21:28:51.685Z,12.67
2022-11-01T21:31:27.501Z,11.63
2022-11-01T21:33:57.356Z,10.07
2022-11-01T21:36:34.801Z,11.50
2022-11-01T21:39:04.557Z,11.63
2022-11-01T21:41:40.097Z,12.70
2022-11-01T21:44:28.036Z,10.17
2022-11-01T21:46:57.615Z,7.87
2022-11-01T21:49:30.507Z,11.00
2022-11-01T21:52:01.059Z,12.17
2022-11-01T21:54:29.923Z,8.63
2022-11-01T21:56:58.230Z,11.57
2022-11-01T21:59:26.988Z,10.80
2022-11-01T22:01:56.109Z,11.17
2022-11-01T22:04:28.536Z,15.20
2022-11-01T22:06:56.869Z,13.40
2022-11-01T22:09:26.277Z,9.63
2022-11-01T22:11:54.097Z,13.50
2022-11-01T22:14:22.130Z,7.53
2022-11-01T22:16:49.838Z,10.90
2022-11-01T22:19:17.524Z,7.73
2022-11-01T22:24:18.289Z,7.60
2022-11-01T22:26:47.489Z,14.80
2022-11-01T22:29:15.408Z,14.70
2022-11-01T22:31:43.401Z,12.67
2022-11-01T22:34:11.273Z,12.43
2022-11-01T22:36:41.531Z,7.50
2022-11-01T22:39:15.451Z,7.00
2022-11-01T22:41:43.422Z,14.23
2022-11-01T22:44:17.622Z,9.03
2022-11-01T22:46:50.297Z,10.80
2022-11-01T22:49:25.736Z,6.23
2022-11-01T22:51:56.180Z,9.17
2022-11-01T22:54:47.584Z,10.00
2022-11-01T22:57:17.142Z,12.43
2022-11-01T22:59:49.076Z,10.40
2022-11-01T23:02:28.769Z,8.93
2022-11-01T23:05:19.702Z,8.23
2022-11-01T23:07:49.807Z,12.10
2022-11-01T23:10:30.058Z,8.47
2022-11-01T23:13:18.433Z,11.13
2022-11-01T23:15:47.757Z,7.30
2022-11-01T23:18:22.318Z,11.43
2022-11-01T23:20:55.262Z,7.73
2022-11-01T23:23:24.032Z,9.00
2022-11-01T23:25:52.306Z,11.87
2022-11-01T23:28:20.255Z,9.37
2022-11-01T23:30:49.583Z,10.57
2022-11-01T23:33:19.974Z,10.03
2022-11-01T23:35:51.949Z,8.80
2022-11-01T23:38:22.155Z,9.30
2022-11-01T23:40:51.383Z,11.83
2022-11-01T23:43:25.098Z,8.43
2022-11-01T23:45:54.881Z,8.53
2022-11-01T23:48:23.584Z,7.23
2022-11-01T23:50:54.106Z,9.13
2022-11-01T23:53:27.452Z,12.53
2022-11-01T23:55:55.746Z,8.00
2022-11-01T23:58:27.309Z,9.73
